createdAt,value
2023-01-30T00:01:52.936Z,12.10
2023-01-30T00:04:22.668Z,12.10
2023-01-30T00:06:52.500Z,12.10
2023-01-30T00:09:22.348Z,12.10
2023-01-30T00:11:52.199Z,12.10
2023-01-30T00:14:21.974Z,12.10
2023-01-30T00:16:51.733Z,12.10
2023-01-30T00:19:21.439Z,12.10
2023-01-30T00:21:51.249Z,12.10
2023-01-30T00:24:21.285Z,12.10
2023-01-30T00:26:51.079Z,12.10
2023-01-30T00:29:20.931Z,12.10
2023-01-30T00:31:51.571Z,12.10
2023-01-30T00:34:21.599Z,12.20
2023-01-30T00:36:58.935Z,12.20
2023-01-30T00:39:36.094Z,12.20
2023-01-30T00:42:25.416Z,12.30
2023-01-30T00:45:14.682Z,12.30
2023-01-30T00:47:44.609Z,12.30
2023-01-30T00:50:14.490Z,12.40
2023-01-30T00:52:44.368Z,12.40
2023-01-30T00:55:14.103Z,12.50
2023-01-30T00:57:43.975Z,12.50
2023-01-30T01:00:14.402Z,12.60
2023-01-30T01:02:44.464Z,12.60
2023-01-30T01:05:14.289Z,12.70
2023-01-30T01:07:44.229Z,12.80
2023-01-30T01:10:18.323Z,12.90
2023-01-30T01:12:49.187Z,12.90
2023-01-30T01:15:19.300Z,13.00
2023-01-30T01:17:49.382Z,13.10
2023-01-30T01:20:21.117Z,13.20
2023-01-30T01:22:55.690Z,13.30
2023-01-30T01:25:26.809Z,13.40
2023-01-30T01:27:57.607Z,13.50
2023-01-30T01:30:27.349Z,13.60
2023-01-30T01:32:59.639Z,13.70
2023-01-30T01:35:29.648Z,13.80
2023-01-30T01:37:59.405Z,13.80
2023-01-30T01:40:49.018Z,14.00
2023-01-30T01:43:21.668Z,14.00
2023-01-30T01:45:55.581Z,14.20
2023-01-30T01:48:37.341Z,14.30
2023-01-30T01:51:31.015Z,14.40
2023-01-30T01:54:19.494Z,14.60
2023-01-30T01:56:51.608Z,14.70
2023-01-30T01:59:39.277Z,14.80
2023-01-30T02:02:14.783Z,14.90
2023-01-30T02:05:07.958Z,15.00
2023-01-30T02:08:16.845Z,15.20
2023-01-30T02:11:12.210Z,15.30
2023-01-30T02:13:42.143Z,15.50
2023-01-30T02:16:12.129Z,15.60
2023-01-30T02:18:44.664Z,15.80
2023-01-30T02:21:45.484Z,15.90
2023-01-30T02:24:54.437Z,16.10
2023-01-30T02:28:03.261Z,16.20
2023-01-30T02:31:12.377Z,16.40
2023-01-30T02:34:03.628Z,16.50
2023-01-30T02:37:04.380Z,16.70
2023-01-30T02:40:08.147Z,16.70
2023-01-30T02:42:50.071Z,16.90
2023-01-30T02:45:58.983Z,16.90
2023-01-30T02:48:57.314Z,17.10
2023-01-30T02:51:37.540Z,17.20
2023-01-30T02:54:09.647Z,17.30
2023-01-30T02:56:55.571Z,17.40
2023-01-30T02:59:46.224Z,17.50
2023-01-30T03:02:52.451Z,17.60
2023-01-30T03:05:47.391Z,17.70
2023-01-30T03:08:42.569Z,17.80
2023-01-30T03:11:13.630Z,17.80
2023-01-30T03:14:08.890Z,18.00
2023-01-30T03:16:41.460Z,18.10
2023-01-30T03:19:15.192Z,18.20
2023-01-30T03:21:46.699Z,18.30
2023-01-30T03:24:16.842Z,18.40
2023-01-30T03:26:52.059Z,18.50
2023-01-30T03:29:21.753Z,18.60
2023-01-30T03:31:51.823Z,18.60
2023-01-30T03:34:22.538Z,18.70
2023-01-30T03:36:52.427Z,18.80
2023-01-30T03:39:22.972Z,18.90
2023-01-30T03:41:53.447Z,18.90
2023-01-30T03:44:23.855Z,19.00
2023-01-30T03:46:53.754Z,19.10
2023-01-30T03:49:23.617Z,19.20
2023-01-30T03:51:53.387Z,19.30
2023-01-30T03:54:23.169Z,19.40
2023-01-30T03:56:52.804Z,19.50
2023-01-30T03:59:22.649Z,19.60
2023-01-30T04:01:52.632Z,19.60
2023-01-30T04:04:22.373Z,19.70
2023-01-30T04:06:52.248Z,19.80
2023-01-30T04:09:22.218Z,19.90
2023-01-30T04:11:52.149Z,19.90
2023-01-30T04:14:22.180Z,20.00
2023-01-30T04:16:52.115Z,20.10
2023-01-30T04:19:21.974Z,20.20
2023-01-30T04:21:51.815Z,20.30
2023-01-30T04:24:21.714Z,20.40
2023-01-30T04:26:51.435Z,20.50
2023-01-30T04:29:21.797Z,20.60
2023-01-30T04:31:51.645Z,20.70
2023-01-30T04:34:21.451Z,20.70
2023-01-30T04:36:51.997Z,20.90
2023-01-30T04:39:22.214Z,20.90
2023-01-30T04:41:52.328Z,21.10
2023-01-30T04:44:22.230Z,21.20
2023-01-30T04:46:52.159Z,21.20
2023-01-30T04:49:21.935Z,21.30
2023-01-30T04:51:51.828Z,21.40
2023-01-30T04:54:21.597Z,21.40
2023-01-30T04:56:51.403Z,21.50
2023-01-30T04:59:21.355Z,21.60
2023-01-30T05:01:51.476Z,21.60
2023-01-30T05:04:21.354Z,21.70
2023-01-30T05:06:51.144Z,21.80
2023-01-30T05:09:20.949Z,21.80
2023-01-30T05:11:50.742Z,21.90
2023-01-30T05:14:20.782Z,21.90
2023-01-30T05:16:50.809Z,22.00
2023-01-30T05:19:20.772Z,22.10
2023-01-30T05:21:50.467Z,22.20
2023-01-30T05:24:20.352Z,22.20
2023-01-30T05:26:50.469Z,22.30
2023-01-30T05:29:20.395Z,22.30
2023-01-30T05:31:50.367Z,22.40
2023-01-30T05:34:20.051Z,22.40
2023-01-30T05:36:49.864Z,22.50
2023-01-30T05:39:20.564Z,22.50
2023-01-30T05:41:50.451Z,22.60
2023-01-30T05:44:20.551Z,22.60
2023-01-30T05:46:50.499Z,22.70
2023-01-30T05:49:20.431Z,22.80
2023-01-30T05:51:51.570Z,22.90
2023-01-30T05:54:21.494Z,23.00
2023-01-30T05:56:52.547Z,23.00
2023-01-30T05:59:22.509Z,23.10
2023-01-30T06:01:52.372Z,23.10
2023-01-30T06:04:22.181Z,23.20
2023-01-30T06:06:52.802Z,23.20
2023-01-30T06:09:22.751Z,23.30
2023-01-30T06:11:54.246Z,23.40
2023-01-30T06:14:24.172Z,23.50
2023-01-30T06:16:53.969Z,23.60
2023-01-30T06:19:23.907Z,23.60
2023-01-30T06:21:53.584Z,23.70
2023-01-30T06:24:23.410Z,23.80
2023-01-30T06:26:53.233Z,23.80
2023-01-30T06:29:22.965Z,23.90
2023-01-30T06:31:52.758Z,24.00
2023-01-30T06:34:22.498Z,24.10
2023-01-30T06:36:52.356Z,24.10
2023-01-30T06:39:22.877Z,24.20
2023-01-30T06:41:52.791Z,24.20
2023-01-30T06:44:22.852Z,24.30
2023-01-30T06:46:55.791Z,24.30
2023-01-30T06:49:25.752Z,24.40
2023-01-30T06:51:55.547Z,24.50
2023-01-30T06:54:25.448Z,24.60
2023-01-30T06:56:55.781Z,24.70
2023-01-30T06:59:25.745Z,24.70
2023-01-30T07:01:55.543Z,24.80
2023-01-30T07:04:25.510Z,24.90
2023-01-30T07:06:55.477Z,24.90
2023-01-30T07:09:25.369Z,25.00
2023-01-30T07:11:55.198Z,25.00
2023-01-30T07:14:25.137Z,25.00
2023-01-30T07:16:54.929Z,25.10
2023-01-30T07:19:24.830Z,25.10
2023-01-30T07:21:54.563Z,25.10
2023-01-30T07:24:24.311Z,25.10
2023-01-30T07:26:54.141Z,25.10
2023-01-30T07:29:23.988Z,25.20
2023-01-30T07:31:54.360Z,25.20
2023-01-30T07:34:24.402Z,25.20
2023-01-30T07:36:54.125Z,25.20
2023-01-30T07:39:24.736Z,25.30
2023-01-30T07:41:56.724Z,25.30
2023-01-30T07:44:27.048Z,25.40
2023-01-30T07:46:57.035Z,25.40
2023-01-30T07:49:27.019Z,25.40
2023-01-30T07:51:56.693Z,25.40
2023-01-30T07:54:26.432Z,25.50
2023-01-30T07:56:56.494Z,25.50
2023-01-30T07:59:26.349Z,25.60
2023-01-30T08:01:59.404Z,25.60
2023-01-30T08:04:29.160Z,25.60
2023-01-30T08:06:59.058Z,25.70
2023-01-30T08:09:28.887Z,25.80
2023-01-30T08:11:58.657Z,25.80
2023-01-30T08:14:30.473Z,25.80
2023-01-30T08:17:00.489Z,25.80
2023-01-30T08:19:30.248Z,25.80
2023-01-30T08:22:02.208Z,25.80
2023-01-30T08:24:32.047Z,25.80
2023-01-30T08:27:02.139Z,25.80
2023-01-30T08:29:32.068Z,25.90
2023-01-30T08:32:02.420Z,25.90
2023-01-30T08:34:32.205Z,25.90
2023-01-30T08:37:02.107Z,25.90
2023-01-30T08:39:32.810Z,25.90
2023-01-30T08:42:02.551Z,26.00
2023-01-30T08:44:32.349Z,25.90
2023-01-30T08:47:02.110Z,26.00
2023-01-30T08:49:31.920Z,25.90
2023-01-30T08:52:01.695Z,25.90
2023-01-30T08:54:33.219Z,25.90
2023-01-30T08:57:03.131Z,26.00
2023-01-30T08:59:32.943Z,25.90
2023-01-30T09:02:02.644Z,25.90
2023-01-30T09:04:33.082Z,25.90
2023-01-30T09:07:02.908Z,25.90
2023-01-30T09:09:32.818Z,25.90
2023-01-30T09:12:02.723Z,25.90
2023-01-30T09:14:32.548Z,25.90
2023-01-30T09:17:02.170Z,25.90
2023-01-30T09:19:32.110Z,25.90
2023-01-30T09:22:01.900Z,25.90
2023-01-30T09:24:33.081Z,25.80
2023-01-30T09:27:03.058Z,25.80
2023-01-30T09:29:33.005Z,25.80
2023-01-30T09:32:02.932Z,25.80
2023-01-30T09:34:32.799Z,25.80
2023-01-30T09:37:04.879Z,25.80
2023-01-30T09:39:36.119Z,25.80
2023-01-30T09:42:45.052Z,25.80
2023-01-30T09:45:36.530Z,25.80
2023-01-30T09:48:30.036Z,25.80
2023-01-30T09:51:29.300Z,25.70
2023-01-30T09:54:26.229Z,25.70
2023-01-30T09:57:22.671Z,25.70
2023-01-30T10:00:27.439Z,25.60
2023-01-30T10:03:21.852Z,25.60
2023-01-30T10:06:00.947Z,25.60
2023-01-30T10:08:54.619Z,25.50
2023-01-30T10:11:50.529Z,25.50
2023-01-30T10:14:54.203Z,25.50
2023-01-30T10:18:03.046Z,25.40
2023-01-30T10:20:54.679Z,25.30
2023-01-30T10:23:57.568Z,25.20
2023-01-30T10:26:30.827Z,25.10
2023-01-30T10:29:22.495Z,25.10
2023-01-30T10:32:04.478Z,25.00
2023-01-30T10:34:37.683Z,24.90
2023-01-30T10:37:32.865Z,24.90
2023-01-30T10:40:23.850Z,24.80
2023-01-30T10:43:21.333Z,24.70
2023-01-30T10:46:18.023Z,24.60
2023-01-30T10:49:08.793Z,24.60
2023-01-30T10:51:58.108Z,24.50
2023-01-30T10:54:43.153Z,24.40
2023-01-30T10:57:52.363Z,24.30
2023-01-30T11:00:31.429Z,24.20
2023-01-30T11:03:30.791Z,24.10
2023-01-30T11:06:09.772Z,24.00
2023-01-30T11:08:39.752Z,23.90
2023-01-30T11:11:48.612Z,23.80
2023-01-30T11:14:18.814Z,23.70
2023-01-30T11:16:56.386Z,23.60
2023-01-30T11:19:33.724Z,23.50
2023-01-30T11:22:05.529Z,23.40
2023-01-30T11:24:46.056Z,23.30
2023-01-30T11:27:21.515Z,23.20
2023-01-30T11:29:54.178Z,23.10
2023-01-30T11:32:31.446Z,23.00
2023-01-30T11:35:26.164Z,22.90
2023-01-30T11:37:56.503Z,22.80
2023-01-30T11:40:30.749Z,22.60
2023-01-30T11:43:16.362Z,22.50
2023-01-30T11:45:52.170Z,22.40
2023-01-30T11:48:32.993Z,22.30
2023-01-30T11:51:08.795Z,22.20
2023-01-30T11:53:50.938Z,22.00
2023-01-30T11:56:36.754Z,21.90
2023-01-30T11:59:41.453Z,21.80
2023-01-30T12:02:38.243Z,21.70
2023-01-30T12:05:18.876Z,21.60
2023-01-30T12:07:48.703Z,21.50
2023-01-30T12:10:42.813Z,21.40
2023-01-30T12:13:24.763Z,21.30
2023-01-30T12:16:11.094Z,21.20
2023-01-30T12:18:48.234Z,21.00
2023-01-30T12:21:47.250Z,20.90
2023-01-30T12:24:29.795Z,20.80
2023-01-30T12:27:11.963Z,20.70
2023-01-30T12:30:13.874Z,20.70
2023-01-30T12:32:43.854Z,20.60
2023-01-30T12:35:26.200Z,20.50
2023-01-30T12:38:34.997Z,20.40
2023-01-30T12:41:33.335Z,20.40
2023-01-30T12:44:31.913Z,20.30
2023-01-30T12:47:33.522Z,20.20
2023-01-30T12:50:31.564Z,20.10
2023-01-30T12:53:33.328Z,20.00
2023-01-30T12:56:42.126Z,19.90
2023-01-30T12:59:33.905Z,19.80
2023-01-30T13:02:29.740Z,19.70
2023-01-30T13:05:34.806Z,19.60
2023-01-30T13:08:43.652Z,19.40
2023-01-30T13:11:46.430Z,19.30
2023-01-30T13:14:42.034Z,19.20
2023-01-30T13:17:39.413Z,19.20
2023-01-30T13:20:48.288Z,19.10
2023-01-30T13:23:43.238Z,19.00
2023-01-30T13:26:32.862Z,19.00
2023-01-30T13:29:07.540Z,19.00
2023-01-30T13:31:42.470Z,19.00
2023-01-30T13:34:25.053Z,19.00
2023-01-30T13:37:05.928Z,18.90
2023-01-30T13:40:00.459Z,18.90
2023-01-30T13:42:40.590Z,18.80
2023-01-30T13:45:23.985Z,18.70
2023-01-30T13:48:32.926Z,18.70
2023-01-30T13:51:42.026Z,18.60
2023-01-30T13:54:42.636Z,18.50
2023-01-30T13:57:39.056Z,18.40
2023-01-30T14:00:33.009Z,18.40
2023-01-30T14:03:27.518Z,18.30
2023-01-30T14:06:10.405Z,18.20
2023-01-30T14:08:57.436Z,18.20
2023-01-30T14:11:59.010Z,18.10
2023-01-30T14:14:32.989Z,18.00
2023-01-30T14:17:17.633Z,18.00
2023-01-30T14:20:17.603Z,18.00
2023-01-30T14:23:01.119Z,17.90
2023-01-30T14:25:46.912Z,17.90
2023-01-30T14:28:46.173Z,17.80
2023-01-30T14:31:55.240Z,17.70
2023-01-30T14:34:46.062Z,17.70
2023-01-30T14:37:53.406Z,17.70
2023-01-30T14:40:36.001Z,17.60
2023-01-30T14:43:45.822Z,17.50
2023-01-30T14:46:54.558Z,17.50
2023-01-30T14:49:30.473Z,17.40
2023-01-30T14:52:00.814Z,17.40
2023-01-30T14:54:41.821Z,17.30
2023-01-30T14:57:34.463Z,17.20
2023-01-30T15:00:27.105Z,17.20
2023-01-30T15:03:01.805Z,17.10
2023-01-30T15:05:39.761Z,17.10
2023-01-30T15:08:25.584Z,17.00
2023-01-30T15:11:20.552Z,17.00
2023-01-30T15:14:16.302Z,17.00
2023-01-30T15:17:07.796Z,16.90
2023-01-30T15:20:14.799Z,16.90
2023-01-30T15:23:23.784Z,16.80
2023-01-30T15:26:32.706Z,16.70
2023-01-30T15:29:31.588Z,16.60
2023-01-30T15:32:17.687Z,16.60
2023-01-30T15:35:00.604Z,16.60
2023-01-30T15:37:40.276Z,16.50
2023-01-30T15:40:22.560Z,16.50
2023-01-30T15:43:32.195Z,16.50
2023-01-30T15:46:41.028Z,16.40
2023-01-30T15:49:49.956Z,16.40
2023-01-30T15:52:23.546Z,16.40
2023-01-30T15:54:55.931Z,16.40
2023-01-30T15:57:38.001Z,16.30
2023-01-30T16:00:10.926Z,16.30
2023-01-30T16:02:41.071Z,16.20
2023-01-30T16:05:19.916Z,16.20
2023-01-30T16:07:52.663Z,16.20
2023-01-30T16:10:26.515Z,16.10
2023-01-30T16:12:59.495Z,16.10
2023-01-30T16:15:44.807Z,16.10
2023-01-30T16:18:40.127Z,16.00
2023-01-30T16:21:19.412Z,16.00
2023-01-30T16:24:10.711Z,15.90
2023-01-30T16:26:46.693Z,15.90
2023-01-30T16:29:21.435Z,15.90
2023-01-30T16:31:53.181Z,15.80
2023-01-30T16:34:34.267Z,15.70
2023-01-30T16:37:27.101Z,15.70
2023-01-30T16:40:27.179Z,15.60
2023-01-30T16:43:03.664Z,15.60
2023-01-30T16:46:14.577Z,15.60
2023-01-30T16:48:46.005Z,15.50
2023-01-30T16:51:23.500Z,15.50
2023-01-30T16:54:01.222Z,15.30
2023-01-30T16:56:32.745Z,15.20
2023-01-30T16:59:03.927Z,15.10
2023-01-30T17:01:40.029Z,15.10
2023-01-30T17:04:20.553Z,15.10
2023-01-30T17:07:03.045Z,15.00
2023-01-30T17:09:46.271Z,15.00
2023-01-30T17:12:38.699Z,15.00
2023-01-30T17:15:28.611Z,15.10
2023-01-30T17:17:58.637Z,15.10
2023-01-30T17:20:35.777Z,15.10
2023-01-30T17:23:10.274Z,15.10
2023-01-30T17:25:47.437Z,15.10
2023-01-30T17:28:25.768Z,15.10
2023-01-30T17:30:55.668Z,15.00
2023-01-30T17:33:27.358Z,15.00
2023-01-30T17:35:57.170Z,15.00
2023-01-30T17:38:27.012Z,15.00
2023-01-30T17:40:56.785Z,15.00
2023-01-30T17:43:26.710Z,15.00
2023-01-30T17:45:57.771Z,15.00
2023-01-30T17:48:27.603Z,14.90
2023-01-30T17:50:57.338Z,14.90
2023-01-30T17:53:27.073Z,14.80
2023-01-30T17:55:57.050Z,14.80
2023-01-30T17:58:27.218Z,14.80
2023-01-30T18:00:57.099Z,14.70
2023-01-30T18:03:27.247Z,14.70
2023-01-30T18:05:57.138Z,14.70
2023-01-30T18:08:26.990Z,14.60
2023-01-30T18:10:56.741Z,14.60
2023-01-30T18:13:26.551Z,14.50
2023-01-30T18:16:01.610Z,14.50
2023-01-30T18:18:31.647Z,14.50
2023-01-30T18:21:01.371Z,14.50
2023-01-30T18:23:31.213Z,14.40
2023-01-30T18:26:01.071Z,14.40
2023-01-30T18:28:30.858Z,14.30
2023-01-30T18:31:00.855Z,14.20
2023-01-30T18:33:30.661Z,14.20
2023-01-30T18:36:00.418Z,14.20
2023-01-30T18:38:32.383Z,14.20
2023-01-30T18:41:07.874Z,14.20
2023-01-30T18:43:38.063Z,14.10
2023-01-30T18:46:11.613Z,14.10
2023-01-30T18:48:41.636Z,14.10
2023-01-30T18:51:17.890Z,14.10
2023-01-30T18:53:49.977Z,14.10
2023-01-30T18:56:28.753Z,14.10
2023-01-30T18:58:59.801Z,14.10
2023-01-30T19:01:32.279Z,14.00
2023-01-30T19:04:04.213Z,14.00
2023-01-30T19:06:34.149Z,13.90
2023-01-30T19:09:03.921Z,13.80
2023-01-30T19:11:53.564Z,13.70
2023-01-30T19:14:23.351Z,13.70
2023-01-30T19:16:53.265Z,13.60
2023-01-30T19:19:23.546Z,13.60
2023-01-30T19:21:54.002Z,13.60
2023-01-30T19:24:25.849Z,13.60
2023-01-30T19:26:55.725Z,13.60
2023-01-30T19:29:25.545Z,13.50
2023-01-30T19:31:55.413Z,13.50
2023-01-30T19:34:25.313Z,13.40
2023-01-30T19:36:55.316Z,13.50
2023-01-30T19:39:25.293Z,13.50
2023-01-30T19:41:55.344Z,13.50
2023-01-30T19:44:25.278Z,13.50
2023-01-30T19:46:55.755Z,13.50
2023-01-30T19:49:25.659Z,13.50
2023-01-30T19:51:55.449Z,13.40
2023-01-30T19:54:25.230Z,13.40
2023-01-30T19:56:55.350Z,13.40
2023-01-30T19:59:29.703Z,13.50
2023-01-30T20:01:59.504Z,13.50
2023-01-30T20:04:29.453Z,13.50
2023-01-30T20:06:59.277Z,13.50
2023-01-30T20:09:29.010Z,13.40
2023-01-30T20:11:58.661Z,13.50
2023-01-30T20:14:28.469Z,13.40
2023-01-30T20:16:58.438Z,13.40
2023-01-30T20:19:28.367Z,13.20
2023-01-30T20:21:58.258Z,13.00
2023-01-30T20:24:28.909Z,13.00
2023-01-30T20:26:58.780Z,12.90
2023-01-30T20:29:28.811Z,12.90
2023-01-30T20:31:58.783Z,12.90
2023-01-30T20:34:28.696Z,13.00
2023-01-30T20:36:58.721Z,13.00
2023-01-30T20:39:28.747Z,13.00
2023-01-30T20:41:58.697Z,13.00
2023-01-30T20:44:28.793Z,13.10
2023-01-30T20:46:59.250Z,13.00
2023-01-30T20:49:29.126Z,13.10
2023-01-30T20:51:58.981Z,13.00
2023-01-30T20:54:28.732Z,13.10
2023-01-30T20:57:19.074Z,13.00
2023-01-30T21:00:38.729Z,13.10
2023-01-30T21:03:28.721Z,13.00
2023-01-30T21:09:09.380Z,13.00
2023-01-30T21:11:54.698Z,13.00
2023-01-30T21:17:47.664Z,13.00
2023-01-30T21:26:54.669Z,12.90
2023-01-30T21:29:42.060Z,12.90
2023-01-30T21:35:32.322Z,12.90
2023-01-30T21:38:21.714Z,12.80
2023-01-30T21:41:14.732Z,12.80
2023-01-30T21:43:44.448Z,12.70
2023-01-30T21:46:18.589Z,12.70
2023-01-30T21:48:49.339Z,12.70
2023-01-30T21:51:19.077Z,12.70
2023-01-30T21:53:49.011Z,12.60
2023-01-30T21:56:18.831Z,12.60
2023-01-30T21:58:48.917Z,12.60
2023-01-30T22:01:19.795Z,12.60
2023-01-30T22:03:50.004Z,12.50
2023-01-30T22:06:19.854Z,12.50
2023-01-30T22:08:49.917Z,12.50
2023-01-30T22:11:21.295Z,12.50
2023-01-30T22:13:51.954Z,12.50
2023-01-30T22:16:24.238Z,12.50
2023-01-30T22:18:56.878Z,12.40
2023-01-30T22:21:28.824Z,12.40
2023-01-30T22:23:59.112Z,12.30
2023-01-30T22:26:29.104Z,12.20
2023-01-30T22:29:01.030Z,12.20
2023-01-30T22:31:36.531Z,12.20
2023-01-30T22:34:06.955Z,12.10
2023-01-30T22:36:37.271Z,12.10
2023-01-30T22:39:08.549Z,12.10
2023-01-30T22:41:38.659Z,12.10
2023-01-30T22:44:11.350Z,12.10
2023-01-30T22:46:43.026Z,12.10
2023-01-30T22:49:13.627Z,12.10
2023-01-30T22:51:45.347Z,12.10
2023-01-30T22:54:17.606Z,12.10
2023-01-30T22:56:49.820Z,12.10
2023-01-30T22:59:19.867Z,12.20
2023-01-30T23:01:54.970Z,12.20
2023-01-30T23:04:25.915Z,12.20
2023-01-30T23:06:55.663Z,12.20
2023-01-30T23:09:26.441Z,12.20
2023-01-30T23:12:18.539Z,12.20
2023-01-30T23:14:48.461Z,12.10
2023-01-30T23:17:37.956Z,12.10
2023-01-30T23:20:08.397Z,12.10
2023-01-30T23:22:38.298Z,12.10
2023-01-30T23:25:08.441Z,12.00
2023-01-30T23:27:38.284Z,12.00
2023-01-30T23:30:08.836Z,12.00
2023-01-30T23:32:38.641Z,12.00
2023-01-30T23:35:08.950Z,12.00
2023-01-30T23:37:58.313Z,12.00
2023-01-30T23:40:28.233Z,12.00
2023-01-30T23:42:58.028Z,12.00
2023-01-30T23:45:30.652Z,12.00
2023-01-30T23:48:00.418Z,12.00
2023-01-30T23:50:31.024Z,12.00
2023-01-30T23:53:00.921Z,12.00
2023-01-30T23:55:32.514Z,12.00
2023-01-30T23:58:03.348Z,11.90
